createdAt,value
2023-03-30T00:02:09.383Z,100085.87
2023-03-30T00:04:38.117Z,100080.78
2023-03-30T00:05:47.877Z,100090.68
2023-03-30T00:06:57.911Z,100087.93
2023-03-30T00:08:07.649Z,100087.98
2023-03-30T00:09:17.480Z,100090.63
2023-03-30T00:11:42.865Z,100085.09
2023-03-30T00:12:52.391Z,100089.04
2023-03-30T00:14:01.431Z,100091.63
2023-03-30T00:16:28.185Z,100089.38
2023-03-30T00:18:52.662Z,100082.31
2023-03-30T00:21:21.042Z,100087.56
2023-03-30T00:23:48.304Z,100083.17
2023-03-30T00:26:15.425Z,100083.33
2023-03-30T00:28:39.033Z,100090.31
2023-03-30T00:29:49.661Z,100089.04
2023-03-30T00:31:00.221Z,100091.85
2023-03-30T00:32:09.158Z,100090.05
2023-03-30T00:34:35.167Z,100078.20
2023-03-30T00:36:59.403Z,100075.86
2023-03-30T00:38:08.628Z,100089.35
2023-03-30T00:42:17.601Z,100082.84
2023-03-30T00:43:28.491Z,100089.30
2023-03-30T00:46:15.383Z,100081.91
2023-03-30T00:48:41.468Z,100090.80
2023-03-30T00:49:51.348Z,100090.26
2023-03-30T00:51:11.705Z,100090.26
2023-03-30T00:53:43.641Z,100087.34
2023-03-30T00:54:56.369Z,100089.41
2023-03-30T00:56:08.696Z,100088.55
2023-03-30T00:58:40.061Z,100092.85
2023-03-30T00:59:52.134Z,100092.30
2023-03-30T01:01:05.836Z,100092.26
2023-03-30T01:02:17.065Z,100094.14
2023-03-30T01:03:31.537Z,100098.50
2023-03-30T01:06:02.200Z,100099.13
2023-03-30T01:07:12.955Z,100107.47
2023-03-30T01:08:24.534Z,100107.48
2023-03-30T01:10:48.211Z,100108.08
2023-03-30T01:13:15.511Z,100109.06
2023-03-30T01:15:43.731Z,100105.53
2023-03-30T01:18:33.014Z,100111.87
2023-03-30T01:22:50.245Z,100109.27
2023-03-30T01:24:23.034Z,100110.41
2023-03-30T01:28:47.113Z,100113.66
2023-03-30T01:31:50.852Z,100127.83
2023-03-30T01:34:48.889Z,100118.39
2023-03-30T01:37:59.151Z,100130.67
2023-03-30T01:39:11.820Z,100127.38
2023-03-30T01:40:25.493Z,100131.80
2023-03-30T01:43:21.123Z,100127.38
2023-03-30T01:44:34.465Z,100135.53
2023-03-30T01:45:52.231Z,100137.33
2023-03-30T01:47:24.193Z,100131.20
2023-03-30T01:48:45.502Z,100133.04
2023-03-30T01:51:26.638Z,100138.84
2023-03-30T01:52:41.612Z,100142.58
2023-03-30T01:55:20.998Z,100140.58
2023-03-30T01:58:11.826Z,100141.30
2023-03-30T02:00:50.905Z,100144.84
2023-03-30T02:02:04.835Z,100141.58
2023-03-30T02:04:42.696Z,100140.39
2023-03-30T02:07:15.036Z,100146.59
2023-03-30T02:09:46.298Z,100149.23
2023-03-30T02:12:14.782Z,100150.13
2023-03-30T02:13:28.722Z,100146.92
2023-03-30T02:16:03.077Z,100157.16
2023-03-30T02:17:23.115Z,100160.31
2023-03-30T02:19:49.224Z,100155.73
2023-03-30T02:22:18.237Z,100159.23
2023-03-30T02:24:52.172Z,100168.02
2023-03-30T02:27:17.473Z,100155.69
2023-03-30T02:28:27.201Z,100172.64
2023-03-30T02:30:56.312Z,100167.08
2023-03-30T02:33:38.882Z,100168.73
2023-03-30T02:36:16.527Z,100178.59
2023-03-30T02:39:16.520Z,100180.38
2023-03-30T02:42:08.018Z,100168.02
2023-03-30T02:45:25.496Z,100156.78
2023-03-30T02:48:38.505Z,100161.79
2023-03-30T02:51:35.127Z,100160.89
2023-03-30T02:53:36.151Z,100173.66
2023-03-30T02:57:47.232Z,100175.95
2023-03-30T03:01:29.309Z,100181.33
2023-03-30T03:04:04.601Z,100182.09
2023-03-30T03:06:33.163Z,100187.41
2023-03-30T03:09:00.832Z,100196.16
2023-03-30T03:11:26.754Z,100198.80
2023-03-30T03:13:52.045Z,100205.92
2023-03-30T03:16:17.414Z,100203.51
2023-03-30T03:18:50.419Z,100210.63
2023-03-30T03:20:01.349Z,100214.43
2023-03-30T03:22:31.057Z,100212.28
2023-03-30T03:24:57.571Z,100211.56
2023-03-30T03:26:50.210Z,100217.16
2023-03-30T03:28:00.863Z,100215.29
2023-03-30T03:30:28.516Z,100218.47
2023-03-30T03:31:40.035Z,100216.13
2023-03-30T03:34:07.276Z,100217.66
2023-03-30T03:37:30.375Z,100217.58
2023-03-30T03:39:55.278Z,100222.09
2023-03-30T03:42:21.732Z,100217.80
2023-03-30T03:45:13.193Z,100224.92
2023-03-30T03:47:55.734Z,100218.55
2023-03-30T03:50:24.313Z,100212.02
2023-03-30T03:51:36.445Z,100227.16
2023-03-30T03:52:47.513Z,100215.38
2023-03-30T03:53:58.126Z,100217.83
2023-03-30T03:55:09.362Z,100229.07
2023-03-30T03:57:36.624Z,100222.08
2023-03-30T03:58:46.014Z,100230.77
2023-03-30T03:59:57.684Z,100227.73
2023-03-30T04:02:24.135Z,100217.82
2023-03-30T04:04:51.982Z,100215.94
2023-03-30T04:06:02.553Z,100218.38
2023-03-30T04:07:12.445Z,100221.48
2023-03-30T04:09:37.698Z,100223.27
2023-03-30T04:11:06.046Z,100222.93
2023-03-30T04:13:32.846Z,100213.84
2023-03-30T04:16:09.461Z,100214.45
2023-03-30T04:18:49.406Z,100219.08
2023-03-30T04:22:19.311Z,100220.05
2023-03-30T04:25:06.130Z,100217.95
2023-03-30T04:26:35.334Z,100221.11
2023-03-30T04:29:58.379Z,100217.86
2023-03-30T04:32:39.323Z,100216.69
2023-03-30T04:35:23.747Z,100224.78
2023-03-30T04:36:52.105Z,100228.70
2023-03-30T04:38:14.518Z,100232.91
2023-03-30T04:40:45.643Z,100224.34
2023-03-30T04:43:12.899Z,100220.95
2023-03-30T04:45:42.675Z,100228.30
2023-03-30T04:48:26.260Z,100220.70
2023-03-30T04:50:21.561Z,100223.02
2023-03-30T04:51:49.074Z,100227.86
2023-03-30T04:55:31.715Z,100229.14
2023-03-30T04:58:02.036Z,100231.05
2023-03-30T04:59:57.533Z,100236.55
2023-03-30T05:02:41.483Z,100241.16
2023-03-30T05:06:04.653Z,100245.30
2023-03-30T05:09:28.751Z,100246.77
2023-03-30T05:12:16.225Z,100251.28
2023-03-30T05:14:52.871Z,100250.66
2023-03-30T05:16:57.596Z,100250.31
2023-03-30T05:18:09.402Z,100249.99
2023-03-30T05:19:37.542Z,100250.14
2023-03-30T05:20:49.786Z,100254.13
2023-03-30T05:24:05.283Z,100244.03
2023-03-30T05:26:49.305Z,100237.31
2023-03-30T05:30:04.628Z,100245.67
2023-03-30T05:31:24.927Z,100247.34
2023-03-30T05:34:33.480Z,100239.88
2023-03-30T05:37:02.844Z,100239.08
2023-03-30T05:39:33.528Z,100239.51
2023-03-30T05:42:19.902Z,100239.84
2023-03-30T05:45:38.054Z,100237.93
2023-03-30T05:48:10.983Z,100246.61
2023-03-30T05:49:36.549Z,100247.98
2023-03-30T05:52:04.459Z,100241.05
2023-03-30T05:55:30.730Z,100241.08
2023-03-30T05:58:08.863Z,100239.84
2023-03-30T05:59:28.302Z,100254.64
2023-03-30T06:00:42.188Z,100244.03
2023-03-30T06:03:12.394Z,100248.75
2023-03-30T06:05:41.313Z,100247.28
2023-03-30T06:08:09.322Z,100252.90
2023-03-30T06:10:34.973Z,100248.75
2023-03-30T06:11:44.166Z,100250.36
2023-03-30T06:12:58.492Z,100258.87
2023-03-30T06:14:12.553Z,100246.70
2023-03-30T06:16:39.729Z,100246.08
2023-03-30T06:19:07.672Z,100243.35
2023-03-30T06:21:33.483Z,100248.70
2023-03-30T06:24:47.711Z,100253.95
2023-03-30T06:27:33.111Z,100249.87
2023-03-30T06:30:00.373Z,100258.25
2023-03-30T06:32:26.678Z,100248.72
2023-03-30T06:35:36.981Z,100249.78
2023-03-30T06:38:03.012Z,100251.07
2023-03-30T06:39:13.466Z,100260.87
2023-03-30T06:41:38.636Z,100238.41
2023-03-30T06:44:05.252Z,100249.61
2023-03-30T06:45:23.661Z,100248.09
2023-03-30T06:47:47.917Z,100241.67
2023-03-30T06:50:13.006Z,100248.05
2023-03-30T06:52:57.440Z,100241.05
2023-03-30T06:54:06.989Z,100239.05
2023-03-30T06:56:31.322Z,100250.45
2023-03-30T06:59:00.301Z,100244.66
2023-03-30T07:01:35.299Z,100244.83
2023-03-30T07:04:10.687Z,100240.12
2023-03-30T07:05:24.373Z,100250.88
2023-03-30T07:06:38.434Z,100241.07
2023-03-30T07:07:47.764Z,100248.89
2023-03-30T07:10:13.082Z,100247.18
2023-03-30T07:12:38.200Z,100244.32
2023-03-30T07:15:07.434Z,100245.57
2023-03-30T07:17:34.035Z,100260.19
2023-03-30T07:19:58.176Z,100243.09
2023-03-30T07:22:23.316Z,100241.45
2023-03-30T07:23:32.654Z,100242.95
2023-03-30T07:25:56.783Z,100240.07
2023-03-30T07:28:24.018Z,100238.98
2023-03-30T07:29:33.108Z,100242.95
2023-03-30T07:31:57.727Z,100231.56
2023-03-30T07:34:24.498Z,100230.56
2023-03-30T07:35:37.183Z,100241.80
2023-03-30T07:36:48.998Z,100229.55
2023-03-30T07:39:13.877Z,100230.15
2023-03-30T07:41:40.146Z,100231.62
2023-03-30T07:44:10.560Z,100216.31
2023-03-30T07:46:35.646Z,100222.45
2023-03-30T07:49:01.130Z,100227.59
2023-03-30T07:51:29.033Z,100222.12
2023-03-30T07:54:37.786Z,100229.11
2023-03-30T07:57:28.665Z,100226.22
2023-03-30T07:59:55.604Z,100220.52
2023-03-30T08:02:26.477Z,100216.16
2023-03-30T08:04:53.960Z,100214.44
2023-03-30T08:07:31.995Z,100211.45
2023-03-30T08:09:58.614Z,100203.55
2023-03-30T08:11:11.495Z,100212.73
2023-03-30T08:12:22.590Z,100208.12
2023-03-30T08:14:48.728Z,100199.00
2023-03-30T08:17:14.562Z,100198.61
2023-03-30T08:18:23.789Z,100193.53
2023-03-30T08:19:32.864Z,100188.17
2023-03-30T08:20:42.822Z,100184.41
2023-03-30T08:23:10.177Z,100188.12
2023-03-30T08:24:20.250Z,100179.05
2023-03-30T08:26:46.023Z,100181.04
2023-03-30T08:29:13.430Z,100171.91
2023-03-30T08:31:38.384Z,100178.61
2023-03-30T08:34:04.018Z,100170.84
2023-03-30T08:36:48.396Z,100166.34
2023-03-30T08:39:13.249Z,100178.90
2023-03-30T08:42:02.407Z,100164.61
2023-03-30T08:44:37.348Z,100175.72
2023-03-30T08:47:09.480Z,100177.52
2023-03-30T08:49:46.558Z,100176.91
2023-03-30T08:52:22.001Z,100175.33
2023-03-30T08:53:33.626Z,100181.72
2023-03-30T08:54:42.819Z,100184.91
2023-03-30T08:59:21.227Z,100169.63
2023-03-30T09:03:43.199Z,100169.18
2023-03-30T09:06:23.925Z,100166.31
2023-03-30T09:09:02.591Z,100171.80
2023-03-30T09:10:14.815Z,100174.89
2023-03-30T09:12:58.764Z,100167.25
2023-03-30T09:16:56.616Z,100167.41
2023-03-30T09:18:25.356Z,100178.87
2023-03-30T09:21:02.625Z,100163.73
2023-03-30T09:23:31.697Z,100161.41
2023-03-30T09:26:16.383Z,100155.20
2023-03-30T09:29:05.133Z,100150.36
2023-03-30T09:30:21.333Z,100156.66
2023-03-30T09:31:34.595Z,100148.48
2023-03-30T09:34:10.734Z,100138.35
2023-03-30T09:37:01.940Z,100132.78
2023-03-30T09:38:13.754Z,100138.43
2023-03-30T09:40:51.223Z,100130.20
2023-03-30T09:42:20.836Z,100134.11
2023-03-30T09:43:45.725Z,100126.96
2023-03-30T09:46:31.807Z,100119.88
2023-03-30T09:49:02.836Z,100124.30
2023-03-30T09:51:42.703Z,100109.96
2023-03-30T09:53:06.257Z,100115.68
2023-03-30T09:55:51.651Z,100106.00
2023-03-30T09:57:01.279Z,100106.94
2023-03-30T09:58:18.859Z,100115.21
2023-03-30T10:02:21.135Z,100100.80
2023-03-30T10:03:31.360Z,100104.06
2023-03-30T10:06:20.298Z,100107.11
2023-03-30T10:08:55.450Z,100097.41
2023-03-30T10:10:25.824Z,100102.25
2023-03-30T10:14:34.402Z,100098.13
2023-03-30T10:17:06.577Z,100092.15
2023-03-30T10:19:45.301Z,100100.39
2023-03-30T10:22:17.676Z,100086.98
2023-03-30T10:23:34.092Z,100087.42
2023-03-30T10:26:18.107Z,100088.71
2023-03-30T10:29:00.395Z,100081.95
2023-03-30T10:31:32.697Z,100079.92
2023-03-30T10:34:04.657Z,100078.91
2023-03-30T10:36:36.960Z,100083.58
2023-03-30T10:37:47.696Z,100080.77
2023-03-30T10:41:48.863Z,100090.98
2023-03-30T10:44:21.582Z,100094.67
2023-03-30T10:47:20.483Z,100084.55
2023-03-30T10:50:29.066Z,100087.30
2023-03-30T10:52:00.175Z,100101.95
2023-03-30T10:54:57.138Z,100085.48
2023-03-30T10:58:07.234Z,100077.17
2023-03-30T10:59:44.352Z,100091.13
2023-03-30T11:03:13.432Z,100084.37
2023-03-30T11:08:58.773Z,100070.70
2023-03-30T11:10:20.912Z,100071.13
2023-03-30T11:13:06.913Z,100073.84
2023-03-30T11:15:57.221Z,100070.15
2023-03-30T11:19:03.890Z,100065.28
2023-03-30T11:21:59.969Z,100068.50
2023-03-30T11:24:41.441Z,100068.58
2023-03-30T11:27:29.702Z,100064.60
2023-03-30T11:30:21.003Z,100055.33
2023-03-30T11:33:28.335Z,100057.52
2023-03-30T11:36:10.745Z,100044.81
2023-03-30T11:39:13.672Z,100034.99
2023-03-30T11:41:42.428Z,100051.01
2023-03-30T11:44:10.085Z,100046.47
2023-03-30T11:47:49.212Z,100045.13
2023-03-30T11:50:49.141Z,100041.72
2023-03-30T11:53:58.376Z,100046.92
2023-03-30T11:55:23.536Z,100045.58
2023-03-30T11:58:21.256Z,100039.11
2023-03-30T12:01:35.550Z,100031.38
2023-03-30T12:05:56.760Z,100033.78
2023-03-30T12:08:44.449Z,100038.89
2023-03-30T12:11:43.819Z,100035.52
2023-03-30T12:12:55.446Z,100039.56
2023-03-30T12:15:56.515Z,100033.11
2023-03-30T12:18:50.228Z,100037.69
2023-03-30T12:21:33.520Z,100023.19
2023-03-30T12:24:28.765Z,100029.86
2023-03-30T12:27:08.517Z,100035.28
2023-03-30T12:32:01.654Z,100028.48
2023-03-30T12:34:37.393Z,100028.62
2023-03-30T12:37:25.682Z,100023.05
2023-03-30T12:38:46.211Z,100026.13
2023-03-30T12:41:18.740Z,100015.80
2023-03-30T12:44:06.196Z,100024.66
2023-03-30T12:48:31.533Z,100020.15
2023-03-30T12:52:57.352Z,100012.33
2023-03-30T12:54:26.172Z,100018.02
2023-03-30T12:57:10.022Z,100017.00
2023-03-30T12:58:46.137Z,100019.94
2023-03-30T13:00:17.369Z,100015.45
2023-03-30T13:03:10.789Z,100011.25
2023-03-30T13:04:24.137Z,100016.83
2023-03-30T13:05:40.402Z,100012.28
2023-03-30T13:06:59.063Z,100007.03
2023-03-30T13:09:31.340Z,100008.66
2023-03-30T13:10:43.749Z,100008.98
2023-03-30T13:14:45.725Z,100002.72
2023-03-30T13:17:20.451Z,100003.30
2023-03-30T13:18:35.282Z,100007.45
2023-03-30T13:22:30.480Z,99997.72
2023-03-30T13:23:40.286Z,100000.91
2023-03-30T13:26:34.697Z,99992.09
2023-03-30T13:29:08.902Z,99998.30
2023-03-30T13:30:19.838Z,99998.66
2023-03-30T13:31:33.332Z,100000.48
2023-03-30T13:34:51.474Z,99991.77
2023-03-30T13:37:36.829Z,99992.52
2023-03-30T13:40:38.693Z,99991.30
2023-03-30T13:43:09.045Z,99980.01
2023-03-30T13:46:20.441Z,99987.97
2023-03-30T13:49:27.757Z,99981.14
2023-03-30T13:50:38.106Z,99976.25
2023-03-30T13:53:10.712Z,99971.84
2023-03-30T13:55:42.636Z,99969.83
2023-03-30T13:58:32.664Z,99966.97
2023-03-30T14:01:03.293Z,99968.70
2023-03-30T14:02:17.770Z,99978.03
2023-03-30T14:06:45.808Z,99972.64
2023-03-30T14:09:16.041Z,99968.70
2023-03-30T14:11:46.162Z,99967.62
2023-03-30T14:14:23.456Z,99965.52
2023-03-30T14:16:51.890Z,99957.25
2023-03-30T14:19:26.302Z,99950.50
2023-03-30T14:22:17.718Z,99957.29
2023-03-30T14:25:04.493Z,99951.53
2023-03-30T14:27:41.447Z,99950.78
2023-03-30T14:30:24.960Z,99951.34
2023-03-30T14:31:42.193Z,99951.22
2023-03-30T14:34:32.593Z,99942.57
2023-03-30T14:37:10.528Z,99949.64
2023-03-30T14:39:43.847Z,99944.92
2023-03-30T14:43:41.354Z,99939.67
2023-03-30T14:46:11.937Z,99930.77
2023-03-30T14:48:43.726Z,99929.73
2023-03-30T14:51:29.068Z,99935.68
2023-03-30T14:52:45.010Z,99925.62
2023-03-30T14:55:18.846Z,99928.07
2023-03-30T14:57:45.217Z,99930.75
2023-03-30T14:58:57.015Z,99929.83
2023-03-30T15:00:21.576Z,99933.45
2023-03-30T15:02:53.832Z,99925.59
2023-03-30T15:05:32.044Z,99924.39
2023-03-30T15:07:59.086Z,99921.19
2023-03-30T15:10:35.887Z,99928.36
2023-03-30T15:13:07.037Z,99916.69
2023-03-30T15:15:35.446Z,99922.82
2023-03-30T15:18:05.155Z,99918.23
2023-03-30T15:19:21.468Z,99919.64
2023-03-30T15:21:51.338Z,99915.55
2023-03-30T15:23:00.933Z,99916.24
2023-03-30T15:24:13.822Z,99918.48
2023-03-30T15:25:27.173Z,99914.33
2023-03-30T15:26:39.975Z,99917.78
2023-03-30T15:29:13.955Z,99911.34
2023-03-30T15:30:43.213Z,99918.10
2023-03-30T15:33:36.494Z,99920.70
2023-03-30T15:35:18.294Z,99916.28
2023-03-30T15:39:27.086Z,99914.70
2023-03-30T15:42:04.871Z,99912.31
2023-03-30T15:43:17.138Z,99910.18
2023-03-30T15:44:26.984Z,99909.23
2023-03-30T15:45:36.811Z,99909.30
2023-03-30T15:46:48.686Z,99906.62
2023-03-30T15:49:17.389Z,99909.45
2023-03-30T15:50:26.617Z,99899.48
2023-03-30T15:54:39.318Z,99900.74
2023-03-30T15:57:14.450Z,99897.88
2023-03-30T15:58:26.437Z,99904.64
2023-03-30T16:00:57.004Z,99902.09
2023-03-30T16:02:32.695Z,99903.80
2023-03-30T16:03:57.743Z,99898.45
2023-03-30T16:06:27.108Z,99894.73
2023-03-30T16:08:54.027Z,99891.38
2023-03-30T16:11:21.534Z,99898.61
2023-03-30T16:13:48.505Z,99892.41
2023-03-30T16:16:15.119Z,99896.81
2023-03-30T16:18:42.474Z,99897.16
2023-03-30T16:21:09.823Z,99891.25
2023-03-30T16:23:34.170Z,99895.62
2023-03-30T16:25:58.763Z,99898.98
2023-03-30T16:28:25.785Z,99902.78
2023-03-30T16:29:34.342Z,99907.05
2023-03-30T16:30:47.267Z,99909.73
2023-03-30T16:33:11.420Z,99902.09
2023-03-30T16:35:38.774Z,99904.20
2023-03-30T16:36:49.924Z,99905.57
2023-03-30T16:37:58.411Z,99915.31
2023-03-30T16:40:43.614Z,99910.30
2023-03-30T16:41:53.746Z,99910.06
2023-03-30T16:43:04.115Z,99911.01
2023-03-30T16:45:28.501Z,99907.91
2023-03-30T16:46:37.481Z,99911.38
2023-03-30T16:47:48.746Z,99917.66
2023-03-30T16:50:25.523Z,99909.22
2023-03-30T16:52:50.898Z,99910.50
2023-03-30T16:55:15.587Z,99907.16
2023-03-30T16:56:26.528Z,99910.53
2023-03-30T16:57:36.094Z,99919.66
2023-03-30T16:58:46.092Z,99919.23
2023-03-30T17:01:13.573Z,99910.02
2023-03-30T17:03:37.112Z,99919.05
2023-03-30T17:06:00.768Z,99915.53
2023-03-30T17:08:28.650Z,99920.02
2023-03-30T17:10:55.860Z,99915.80
2023-03-30T17:13:21.305Z,99917.41
2023-03-30T17:15:45.947Z,99920.02
2023-03-30T17:18:14.068Z,99923.73
2023-03-30T17:19:26.179Z,99921.65
2023-03-30T17:21:57.278Z,99916.66
2023-03-30T17:23:08.566Z,99915.38
2023-03-30T17:25:32.697Z,99916.66
2023-03-30T17:26:42.239Z,99919.07
2023-03-30T17:29:07.077Z,99918.53
2023-03-30T17:31:35.126Z,99921.38
2023-03-30T17:32:45.369Z,99914.14
2023-03-30T17:35:10.185Z,99910.97
2023-03-30T17:37:38.973Z,99918.05
2023-03-30T17:40:13.262Z,99915.95
2023-03-30T17:42:37.248Z,99913.46
2023-03-30T17:45:05.936Z,99909.77
2023-03-30T17:47:32.893Z,99901.39
2023-03-30T17:49:59.480Z,99910.02
2023-03-30T17:51:09.556Z,99908.91
2023-03-30T17:53:33.498Z,99906.73
2023-03-30T17:55:57.725Z,99907.70
2023-03-30T17:57:09.411Z,99917.25
2023-03-30T17:58:29.669Z,99912.94
2023-03-30T17:59:38.359Z,99911.24
2023-03-30T18:02:03.372Z,99913.28
2023-03-30T18:04:28.502Z,99908.91
2023-03-30T18:05:38.288Z,99913.03
2023-03-30T18:08:05.554Z,99910.88
2023-03-30T18:10:36.652Z,99908.39
2023-03-30T18:11:46.451Z,99912.50
2023-03-30T18:14:17.987Z,99904.84
2023-03-30T18:16:44.025Z,99911.24
2023-03-30T18:19:12.184Z,99908.48
2023-03-30T18:21:45.800Z,99907.60
2023-03-30T18:22:55.040Z,99905.61
2023-03-30T18:25:31.485Z,99901.59
2023-03-30T18:27:49.774Z,99911.47
2023-03-30T18:30:29.174Z,99906.93
2023-03-30T18:32:57.259Z,99905.96
2023-03-30T18:35:26.557Z,99901.91
2023-03-30T18:36:36.328Z,99901.74
2023-03-30T18:39:02.049Z,99906.99
2023-03-30T18:41:39.989Z,99898.45
2023-03-30T18:44:06.196Z,99894.23
2023-03-30T18:46:42.010Z,99895.11
2023-03-30T18:47:51.325Z,99892.94
2023-03-30T18:49:01.230Z,99895.52
2023-03-30T18:50:20.657Z,99894.67
2023-03-30T18:53:07.946Z,99898.23
2023-03-30T18:55:40.066Z,99890.80
2023-03-30T18:56:49.382Z,99888.66
2023-03-30T18:59:14.366Z,99877.31
2023-03-30T19:01:47.649Z,99881.77
2023-03-30T19:04:13.154Z,99873.95
2023-03-30T19:05:24.521Z,99883.42
2023-03-30T19:06:35.726Z,99874.53
2023-03-30T19:07:45.659Z,99876.27
2023-03-30T19:08:55.919Z,99874.53
2023-03-30T19:11:25.542Z,99867.76
2023-03-30T19:13:51.008Z,99856.99
2023-03-30T19:16:16.306Z,99851.66
2023-03-30T19:17:25.643Z,99860.25
2023-03-30T19:19:49.900Z,99855.97
2023-03-30T19:22:33.484Z,99854.91
2023-03-30T19:24:57.716Z,99857.52
2023-03-30T19:27:23.559Z,99846.90
2023-03-30T19:29:47.955Z,99851.66
2023-03-30T19:31:06.487Z,99848.73
2023-03-30T19:33:31.232Z,99842.95
2023-03-30T19:35:56.682Z,99849.22
2023-03-30T19:38:22.600Z,99844.06
2023-03-30T19:40:47.502Z,99841.40
2023-03-30T19:43:11.501Z,99840.64
2023-03-30T19:45:39.986Z,99846.30
2023-03-30T19:48:04.881Z,99847.33
2023-03-30T19:50:30.458Z,99843.02
2023-03-30T19:51:40.124Z,99847.23
2023-03-30T19:54:08.691Z,99839.59
2023-03-30T19:56:33.662Z,99836.74
2023-03-30T19:58:58.343Z,99831.50
2023-03-30T20:01:26.844Z,99822.73
2023-03-30T20:03:51.970Z,99831.59
2023-03-30T20:05:02.994Z,99824.17
2023-03-30T20:07:27.474Z,99822.88
2023-03-30T20:09:51.257Z,99820.16
2023-03-30T20:12:15.516Z,99812.91
2023-03-30T20:14:41.474Z,99809.63
2023-03-30T20:17:10.836Z,99804.38
2023-03-30T20:19:38.443Z,99805.00
2023-03-30T20:22:03.422Z,99799.66
2023-03-30T20:24:27.192Z,99794.66
2023-03-30T20:26:52.585Z,99788.65
2023-03-30T20:29:17.508Z,99786.39
2023-03-30T20:31:43.399Z,99786.75
2023-03-30T20:34:10.783Z,99786.13
2023-03-30T20:36:38.805Z,99785.87
2023-03-30T20:39:05.133Z,99786.75
2023-03-30T20:41:32.119Z,99772.30
2023-03-30T20:44:00.034Z,99773.77
2023-03-30T20:46:31.635Z,99769.89
2023-03-30T20:48:59.350Z,99779.35
2023-03-30T20:51:24.570Z,99777.30
2023-03-30T20:53:50.871Z,99775.30
2023-03-30T20:56:16.562Z,99776.00
2023-03-30T20:58:41.205Z,99776.84
2023-03-30T21:01:14.740Z,99774.45
2023-03-30T21:03:41.654Z,99770.23
2023-03-30T21:06:08.812Z,99776.17
2023-03-30T21:08:33.624Z,99765.23
2023-03-30T21:11:00.229Z,99755.92
2023-03-30T21:14:35.979Z,99745.77
2023-03-30T21:17:07.468Z,99743.00
2023-03-30T21:18:17.306Z,99745.34
2023-03-30T21:20:41.241Z,99736.63
2023-03-30T21:21:51.019Z,99733.55
2023-03-30T21:24:16.892Z,99731.89
2023-03-30T21:25:25.921Z,99728.81
2023-03-30T21:27:52.273Z,99727.31
2023-03-30T21:30:16.727Z,99724.64
2023-03-30T21:32:41.028Z,99717.42
2023-03-30T21:35:08.935Z,99707.78
2023-03-30T21:36:18.722Z,99707.46
2023-03-30T21:37:27.978Z,99710.04
2023-03-30T21:39:51.847Z,99703.60
2023-03-30T21:42:20.792Z,99699.80
2023-03-30T21:44:48.388Z,99692.48
2023-03-30T21:46:01.909Z,99700.84
2023-03-30T21:48:30.659Z,99683.24
2023-03-30T21:51:07.573Z,99686.76
2023-03-30T21:52:17.328Z,99697.52
2023-03-30T21:53:28.280Z,99692.39
2023-03-30T21:54:37.247Z,99693.11
2023-03-30T21:55:48.458Z,99696.14
2023-03-30T21:58:12.800Z,99689.22
2023-03-30T22:00:39.059Z,99685.33
2023-03-30T22:03:04.274Z,99688.09
2023-03-30T22:05:28.328Z,99677.28
2023-03-30T22:08:14.238Z,99676.69
2023-03-30T22:10:38.897Z,99668.59
2023-03-30T22:13:03.319Z,99675.84
2023-03-30T22:16:36.932Z,99674.90
2023-03-30T22:17:46.403Z,99676.36
2023-03-30T22:20:12.567Z,99668.50
2023-03-30T22:22:41.550Z,99666.95
2023-03-30T22:25:09.592Z,99664.56
2023-03-30T22:27:35.481Z,99665.35
2023-03-30T22:30:00.546Z,99656.38
2023-03-30T22:32:35.066Z,99648.22
2023-03-30T22:35:02.414Z,99657.26
2023-03-30T22:37:33.612Z,99643.13
2023-03-30T22:39:59.450Z,99634.38
2023-03-30T22:42:24.574Z,99634.47
2023-03-30T22:43:33.825Z,99633.36
2023-03-30T22:45:59.522Z,99633.96
2023-03-30T22:47:09.429Z,99631.91
2023-03-30T22:49:33.940Z,99624.14
2023-03-30T22:50:43.689Z,99636.30
2023-03-30T22:53:09.444Z,99623.48
2023-03-30T22:55:34.785Z,99627.94
2023-03-30T22:58:00.906Z,99617.45
2023-03-30T23:00:26.135Z,99620.13
2023-03-30T23:02:52.879Z,99624.33
2023-03-30T23:05:20.785Z,99616.05
2023-03-30T23:07:49.126Z,99615.95
2023-03-30T23:10:17.988Z,99617.17
2023-03-30T23:12:46.361Z,99616.42
2023-03-30T23:15:14.348Z,99608.33
2023-03-30T23:17:39.712Z,99601.96
2023-03-30T23:20:09.843Z,99598.60
2023-03-30T23:22:37.648Z,99601.36
2023-03-30T23:25:03.046Z,99594.30
2023-03-30T23:27:27.020Z,99586.23
2023-03-30T23:28:39.410Z,99590.28
2023-03-30T23:31:13.154Z,99585.08
2023-03-30T23:32:21.885Z,99588.31
2023-03-30T23:34:46.680Z,99577.08
2023-03-30T23:37:12.745Z,99579.18
2023-03-30T23:38:21.872Z,99583.59
2023-03-30T23:40:49.382Z,99574.19
2023-03-30T23:41:58.651Z,99580.17
2023-03-30T23:44:24.866Z,99572.41
2023-03-30T23:46:50.285Z,99573.34
2023-03-30T23:49:16.555Z,99574.75
2023-03-30T23:51:41.569Z,99572.80
2023-03-30T23:54:06.578Z,99569.71
2023-03-30T23:56:36.512Z,99568.34
2023-03-30T23:59:01.142Z,99562.23
